Time;durP1;ratioP1;P1;durP2;ratioP2;P2;SDS_P1;SDS_P2;PMS_P1;PMS_P2;Temp;Humidity;BMP_temperature;BMP_pressure;BME280_temperature;BME280_humidity;BME280_pressure;Samples;Min_cycle;Max_cycle;Signal;HPM_P1;HPM_P2
2023/04/29 00:02:01;;;;;;;25.10;16.60;;;;;;;7.66;62.39;100610.92;105130;1256;96530;-77
2023/04/29 00:04:47;;;;;;;26.30;15.20;;;;;;;7.65;62.45;100611.45;105065;1257;97039;-78
2023/04/29 00:07:33;;;;;;;24.30;16.00;;;;;;;7.64;62.56;100607.77;105112;1261;101254;-76
2023/04/29 00:10:18;;;;;;;25.50;15.50;;;;;;;7.64;62.76;100608.67;105274;1257;99132;-77
2023/04/29 00:13:04;;;;;;;26.70;15.40;;;;;;;7.64;62.86;100605.67;105343;1260;108263;-78
2023/04/29 00:15:49;;;;;;;23.70;15.70;;;;;;;7.63;62.95;100610.89;105430;1261;97033;-77
2023/04/29 00:18:36;;;;;;;21.80;14.40;;;;;;;7.62;62.97;100608.04;105093;1260;97902;-78
2023/04/29 00:21:22;;;;;;;24.60;16.10;;;;;;;7.61;63.22;100603.31;105026;1256;100562;-77
2023/04/29 00:24:07;;;;;;;25.90;15.90;;;;;;;7.61;63.57;100607.08;105460;1260;99071;-78
2023/04/29 00:26:52;;;;;;;22.10;15.00;;;;;;;7.61;63.41;100609.34;105381;1260;98970;-77
2023/04/29 00:29:38;;;;;;;24.40;15.90;;;;;;;7.61;63.39;100606.32;105371;1258;96680;-77
2023/04/29 00:32:24;;;;;;;22.70;15.70;;;;;;;7.61;63.51;100607.70;105422;1260;98434;-77
2023/04/29 00:35:10;;;;;;;24.10;15.90;;;;;;;7.60;63.81;100604.30;105346;1261;100095;-78
2023/04/29 00:37:55;;;;;;;20.50;15.50;;;;;;;7.58;63.64;100602.71;105037;1257;100315;-77
2023/04/29 00:40:42;;;;;;;24.10;15.00;;;;;;;7.58;64.00;100599.55;105355;1257;97923;-77
2023/04/29 00:43:28;;;;;;;27.90;16.40;;;;;;;7.60;64.08;100598.48;105295;1257;96615;-78
2023/04/29 00:46:13;;;;;;;28.10;14.90;;;;;;;7.60;64.04;100598.95;105347;1263;96616;-77
2023/04/29 00:48:59;;;;;;;21.40;15.00;;;;;;;7.60;64.01;100594.74;105147;1256;101246;-77
2023/04/29 00:51:45;;;;;;;24.00;15.00;;;;;;;7.60;64.09;100591.71;105292;1258;100074;-77
2023/04/29 00:54:31;;;;;;;19.40;14.40;;;;;;;7.60;64.17;100595.59;105340;1261;99119;-78
2023/04/29 00:57:18;;;;;;;20.00;13.90;;;;;;;7.59;64.07;100596.78;105209;1260;96654;-76
2023/04/29 01:00:04;;;;;;;21.90;15.00;;;;;;;7.57;64.29;100596.61;105420;1260;97450;-77
2023/04/29 01:02:52;;;;;;;22.90;15.00;;;;;;;7.58;64.31;100597.58;105317;1256;100535;-77
2023/04/29 01:05:38;;;;;;;25.70;15.70;;;;;;;7.59;64.53;100596.21;105195;1262;99027;-77
2023/04/29 01:08:32;;;;;;;21.60;14.40;;;;;;;7.59;64.55;100593.41;105198;1257;97818;-77
2023/04/29 01:11:22;;;;;;;25.90;15.00;;;;;;;7.59;64.63;100591.70;105004;1262;97183;-77
2023/04/29 01:14:09;;;;;;;28.10;15.90;;;;;;;7.58;64.71;100592.85;105048;1260;97100;-76
2023/04/29 01:17:01;;;;;;;23.80;16.10;;;;;;;7.56;64.66;100593.59;105027;1259;101309;-78
2023/04/29 01:19:49;;;;;;;21.50;14.70;;;;;;;7.53;64.95;100597.48;105258;1257;99078;-78
2023/04/29 01:22:36;;;;;;;22.20;15.00;;;;;;;7.52;64.99;100598.65;105422;1260;99223;-79
2023/04/29 01:25:21;;;;;;;21.60;14.10;;;;;;;7.52;65.12;100593.31;105266;1261;96574;-78
2023/04/29 01:28:44;;;;;;;23.00;14.50;;;;;;;7.52;65.09;100588.16;104957;1267;96622;-78
2023/04/29 01:31:47;;;;;;;20.60;14.40;;;;;;;7.49;65.31;100591.65;105096;1260;99972;-77
2023/04/29 01:34:52;;;;;;;20.00;14.10;;;;;;;7.48;65.26;100590.77;105131;1256;100338;-77
2023/04/29 01:37:48;;;;;;;22.90;15.00;;;;;;;7.47;65.57;100591.19;105229;1256;98298;-77
2023/04/29 01:40:48;;;;;;;29.30;16.60;;;;;;;7.47;65.77;100591.48;105503;1260;96661;-78
2023/04/29 01:43:40;;;;;;;24.80;14.50;;;;;;;7.47;65.70;100589.46;105485;1262;97381;-78
2023/04/29 01:46:36;;;;;;;26.90;15.70;;;;;;;7.45;65.62;100589.78;105420;1271;99997;-77
2023/04/29 01:49:25;;;;;;;23.40;15.60;;;;;;;7.44;65.70;100588.52;105179;1260;100306;-77
2023/04/29 01:52:11;;;;;;;22.10;15.20;;;;;;;7.44;65.73;100588.31;105294;1260;98717;-77
2023/04/29 01:54:58;;;;;;;21.60;14.50;;;;;;;7.44;65.66;100591.21;105051;1257;96612;-77
2023/04/29 01:57:48;;;;;;;20.40;14.70;;;;;;;7.42;65.86;100590.16;105373;1259;96671;-77
2023/04/29 02:01:00;;;;;;;22.20;13.90;;;;;;;7.41;65.87;100585.13;105119;1256;100004;-77
2023/04/29 02:03:47;;;;;;;20.40;13.50;;;;;;;7.41;65.79;100581.77;105206;1260;99444;-78
2023/04/29 02:06:34;;;;;;;23.00;13.40;;;;;;;7.42;65.67;100578.48;105118;1260;97779;-77
2023/04/29 02:09:21;;;;;;;18.50;13.50;;;;;;;7.41;65.88;100579.43;105171;1257;96693;-78
2023/04/29 02:12:11;;;;;;;20.00;14.10;;;;;;;7.40;65.87;100578.96;105067;1262;96607;-76
2023/04/29 02:14:59;;;;;;;18.70;13.40;;;;;;;7.39;65.79;100580.20;105223;1258;100013;-76
2023/04/29 02:17:45;;;;;;;19.00;13.40;;;;;;;7.37;65.89;100576.11;105136;1260;99173;-78
2023/04/29 02:20:31;;;;;;;23.00;14.60;;;;;;;7.37;65.98;100577.43;105004;1260;97756;-77
2023/04/29 02:23:17;;;;;;;18.90;13.80;;;;;;;7.32;66.15;100577.54;105128;1261;96855;-76
2023/04/29 02:26:05;;;;;;;19.80;13.40;;;;;;;7.30;66.38;100573.04;105042;1264;97017;-75
2023/04/29 02:28:51;;;;;;;20.80;14.50;;;;;;;7.29;66.27;100573.70;105136;1261;101245;-77
2023/04/29 02:31:37;;;;;;;20.20;13.70;;;;;;;7.26;66.23;100572.94;105123;1257;100559;-78
2023/04/29 02:34:23;;;;;;;21.00;13.90;;;;;;;7.26;66.45;100570.11;105080;1257;99029;-77
2023/04/29 02:37:08;;;;;;;21.00;14.10;;;;;;;7.27;66.43;100565.73;105116;1262;96620;-77
2023/04/29 02:39:53;;;;;;;21.70;13.60;;;;;;;7.26;66.39;100565.65;105111;1261;96672;-76
2023/04/29 02:42:39;;;;;;;23.00;13.40;;;;;;;7.25;66.37;100566.98;105115;1260;101232;-77
2023/04/29 02:45:25;;;;;;;20.70;13.50;;;;;;;7.25;66.45;100567.91;105126;1257;99412;-78
2023/04/29 02:48:10;;;;;;;19.20;12.50;;;;;;;7.24;66.70;100568.21;105132;1260;98511;-77
2023/04/29 02:50:56;;;;;;;20.60;13.40;;;;;;;7.21;66.57;100566.58;105433;1259;96756;-79
2023/04/29 02:53:41;;;;;;;18.30;14.20;;;;;;;7.19;66.64;100564.14;105348;1260;97255;-76
2023/04/29 02:56:28;;;;;;;21.40;14.10;;;;;;;7.18;66.76;100558.31;105313;1256;100717;-77
2023/04/29 02:59:14;;;;;;;18.80;14.20;;;;;;;7.18;66.94;100556.88;105085;1262;100361;-77
2023/04/29 03:02:00;;;;;;;21.00;13.50;;;;;;;7.18;66.83;100557.29;105053;1260;98953;-77
2023/04/29 03:04:46;;;;;;;21.30;14.60;;;;;;;7.16;66.93;100556.25;105122;1262;96600;-77
2023/04/29 03:07:31;;;;;;;22.30;14.40;;;;;;;7.15;66.91;100552.25;105115;1262;96333;-78
2023/04/29 03:10:17;;;;;;;20.90;14.10;;;;;;;7.17;66.76;100552.11;105109;1260;99992;-75
2023/04/29 03:13:03;;;;;;;23.00;14.30;;;;;;;7.17;66.93;100550.63;105112;1257;100305;-78
2023/04/29 03:15:49;;;;;;;25.40;15.30;;;;;;;7.17;66.78;100546.39;105086;1257;97724;-77
2023/04/29 03:18:35;;;;;;;22.90;13.80;;;;;;;7.16;66.89;100550.98;105352;1262;96601;-78
2023/04/29 03:21:20;;;;;;;23.50;14.30;;;;;;;7.14;66.80;100547.92;105522;1256;96790;-78
2023/04/29 03:24:05;;;;;;;21.50;13.80;;;;;;;7.14;66.69;100548.16;105445;1257;101237;-78
2023/04/29 03:26:52;;;;;;;21.30;14.40;;;;;;;7.15;66.86;100548.75;105460;1260;99055;-78
2023/04/29 03:29:38;;;;;;;23.60;13.80;;;;;;;7.15;66.76;100551.19;105197;1259;98713;-77
2023/04/29 03:32:24;;;;;;;20.20;13.10;;;;;;;7.15;66.93;100551.25;105023;1256;96591;-78
2023/04/29 03:35:10;;;;;;;23.90;13.90;;;;;;;7.14;66.96;100556.31;105159;1256;97128;-77
2023/04/29 03:38:00;;;;;;;19.20;12.90;;;;;;;7.13;66.99;100552.91;105184;1256;99986;-78
2023/04/29 03:40:49;;;;;;;20.00;13.50;;;;;;;7.11;66.88;100550.27;105074;1256;99085;-76
2023/04/29 03:43:35;;;;;;;17.30;12.50;;;;;;;7.09;66.99;100553.97;105081;1262;97737;-77
2023/04/29 03:46:20;;;;;;;24.00;13.50;;;;;;;7.08;66.84;100553.17;105109;1259;96611;-77
2023/04/29 03:49:06;;;;;;;21.50;13.20;;;;;;;7.10;66.99;100555.11;105107;1262;96611;-76
2023/04/29 03:51:52;;;;;;;22.40;13.80;;;;;;;7.10;67.09;100553.14;105033;1260;101260;-77
2023/04/29 03:54:38;;;;;;;21.40;14.50;;;;;;;7.11;67.09;100549.75;105123;1260;100403;-76
2023/04/29 03:57:24;;;;;;;19.10;13.60;;;;;;;7.10;67.29;100546.25;105073;1262;97874;-76
2023/04/29 04:00:11;;;;;;;20.60;13.00;;;;;;;7.10;67.21;100550.02;105233;1261;96645;-76
2023/04/29 04:03:03;;;;;;;18.70;12.60;;;;;;;7.08;67.33;100547.69;105098;1259;96633;-76
2023/04/29 04:05:49;;;;;;;19.50;13.40;;;;;;;7.08;67.40;100550.09;105144;1262;99979;-78
2023/04/29 04:08:35;;;;;;;19.60;12.10;;;;;;;7.08;67.49;100548.98;105099;1260;99070;-76
2023/04/29 04:11:28;;;;;;;20.80;12.80;;;;;;;7.10;67.52;100550.91;105100;1262;98546;-77
2023/04/29 04:14:17;;;;;;;24.30;12.80;;;;;;;7.12;67.82;100550.84;105064;1257;96674;-78
2023/04/29 04:17:03;;;;;;;18.20;12.80;;;;;;;7.13;67.80;100547.55;105010;1262;96572;-77
2023/04/29 04:19:49;;;;;;;20.10;12.30;;;;;;;7.15;67.86;100546.81;105083;1256;101028;-77
2023/04/29 04:22:35;;;;;;;18.10;11.90;;;;;;;7.15;67.92;100550.86;105133;1260;100097;-78
2023/04/29 04:25:35;;;;;;;18.70;13.30;;;;;;;7.16;68.11;100550.02;105063;1257;98625;-77
2023/04/29 04:28:41;;;;;;;19.70;12.50;;;;;;;7.19;67.95;100550.98;105058;1272;97834;-76
2023/04/29 04:31:30;;;;;;;22.00;12.90;;;;;;;7.20;68.26;100555.98;105148;1258;97043;-77
2023/04/29 04:34:16;;;;;;;20.50;12.30;;;;;;;7.23;68.55;100555.86;105108;1256;100000;-79
2023/04/29 04:37:02;;;;;;;19.30;12.00;;;;;;;7.26;68.42;100552.29;105104;1261;99868;-76
2023/04/29 04:39:49;;;;;;;17.60;12.20;;;;;;;7.28;68.23;100550.63;105319;1260;98973;-78
2023/04/29 04:42:34;;;;;;;19.60;12.60;;;;;;;7.30;68.21;100550.27;105103;1262;96524;-78
2023/04/29 04:45:20;;;;;;;18.90;12.30;;;;;;;7.33;68.35;100548.20;105044;1263;99078;-79
2023/04/29 04:48:08;;;;;;;18.90;12.80;;;;;;;7.35;68.33;100546.73;105042;1257;101499;-76
2023/04/29 04:50:57;;;;;;;23.40;11.60;;;;;;;7.37;68.28;100546.95;105121;1261;99247;-76
2023/04/29 04:53:42;;;;;;;15.60;11.40;;;;;;;7.42;68.35;100547.48;105005;1262;98973;-77
2023/04/29 04:56:36;;;;;;;16.20;11.70;;;;;;;7.46;68.12;100547.74;105114;1257;97236;-77
2023/04/29 04:59:23;;;;;;;25.20;13.50;;;;;;;7.52;68.53;100548.35;105119;1260;97235;-77
2023/04/29 05:02:09;;;;;;;17.30;11.50;;;;;;;7.59;68.70;100544.74;105082;1256;100010;-77
2023/04/29 05:04:54;;;;;;;19.80;12.80;;;;;;;7.67;68.60;100543.10;105156;1256;99072;-77
2023/04/29 05:07:43;;;;;;;18.90;11.90;;;;;;;7.76;68.21;100544.38;105443;1262;98975;-78
2023/04/29 05:10:28;;;;;;;16.30;11.50;;;;;;;7.85;68.03;100543.63;105440;1256;97534;-79
2023/04/29 05:13:16;;;;;;;19.20;10.90;;;;;;;7.91;67.78;100540.39;105505;1256;97153;-77
2023/04/29 05:16:03;;;;;;;17.00;10.70;;;;;;;7.98;67.83;100537.71;105572;1256;99999;-78
2023/04/29 05:18:49;;;;;;;20.20;10.50;;;;;;;8.04;67.65;100536.34;105431;1261;100855;-78
2023/04/29 05:21:35;;;;;;;15.90;10.80;;;;;;;8.10;67.52;100532.41;105546;1260;97690;-79
2023/04/29 05:24:21;;;;;;;13.60;10.50;;;;;;;8.16;67.39;100533.73;105492;1262;97313;-78
2023/04/29 05:27:08;;;;;;;16.30;10.70;;;;;;;8.23;67.56;100533.19;105604;1256;96549;-78
2023/04/29 05:29:54;;;;;;;14.70;10.40;;;;;;;8.30;67.19;100534.26;105389;1262;100041;-78
2023/04/29 05:32:39;;;;;;;17.80;11.00;;;;;;;8.37;67.10;100530.80;105434;1262;99192;-78
2023/04/29 05:35:26;;;;;;;16.80;10.60;;;;;;;8.46;67.46;100530.80;105448;1262;97717;-78
2023/04/29 05:38:13;;;;;;;15.10;9.80;;;;;;;8.55;67.15;100529.36;105456;1260;97030;-77
2023/04/29 05:41:03;;;;;;;16.50;10.90;;;;;;;8.66;67.03;100530.44;105128;1260;96800;-78
2023/04/29 05:44:00;;;;;;;13.60;9.70;;;;;;;8.76;67.06;100531.04;105051;1259;100023;-77
2023/04/29 05:46:47;;;;;;;15.50;10.20;;;;;;;8.86;66.76;100532.95;105104;1258;99125;-78
2023/04/29 05:49:33;;;;;;;11.70;9.20;;;;;;;8.94;66.43;100539.27;105087;1261;99519;-78
2023/04/29 05:52:19;;;;;;;13.80;10.10;;;;;;;9.02;66.13;100537.38;105127;1261;96728;-78
2023/04/29 05:55:07;;;;;;;15.10;9.90;;;;;;;9.11;66.39;100539.70;105111;1260;96435;-77
2023/04/29 05:57:52;;;;;;;16.30;10.40;;;;;;;9.22;66.09;100538.79;105082;1256;101422;-76
2023/04/29 06:00:38;;;;;;;15.40;9.90;;;;;;;9.32;65.92;100537.22;105429;1258;99085;-79
2023/04/29 06:03:29;;;;;;;14.00;9.60;;;;;;;9.41;65.90;100534.21;105272;1262;97708;-76
2023/04/29 06:06:43;;;;;;;16.70;10.70;;;;;;;9.53;65.63;100532.07;105377;1260;97897;-77
2023/04/29 06:09:36;;;;;;;12.40;9.60;;;;;;;9.65;65.40;100528.98;105426;1256;97119;-77
2023/04/29 06:12:21;;;;;;;21.00;12.20;;;;;;;9.73;65.01;100523.45;105116;1256;100782;-78
2023/04/29 06:15:07;;;;;;;18.40;10.80;;;;;;;9.77;64.66;100525.73;105139;1259;99082;-77
2023/04/29 06:17:53;;;;;;;14.00;9.40;;;;;;;9.84;64.86;100526.51;106438;1260;97741;-83
2023/04/29 06:20:38;;;;;;;14.60;9.70;;;;;;;9.94;64.59;100525.86;106097;1262;96625;-82
2023/04/29 06:23:24;;;;;;;15.80;8.80;;;;;;;10.01;64.47;100526.18;106254;1257;96653;-89
2023/04/29 06:26:10;;;;;;;14.90;8.80;;;;;;;10.12;64.69;100523.17;105193;1261;100000;-82
2023/04/29 06:28:56;;;;;;;12.40;9.20;;;;;;;10.23;64.89;100520.86;105820;1264;100618;-83
2023/04/29 06:31:42;;;;;;;14.30;9.30;;;;;;;10.37;64.80;100521.15;105774;1262;97713;-77
2023/04/29 06:34:28;;;;;;;14.70;9.90;;;;;;;10.49;64.38;100520.15;105171;1256;96693;-78
2023/04/29 06:37:32;;;;;;;18.20;10.10;;;;;;;10.62;63.77;100519.10;105499;1256;96817;-79
2023/04/29 06:40:40;;;;;;;13.50;8.70;;;;;;;10.71;63.99;100519.00;105601;1256;99992;-79
2023/04/29 06:43:45;;;;;;;12.90;9.30;;;;;;;10.83;63.45;100517.29;105335;1256;99084;-83
2023/04/29 06:46:46;;;;;;;13.50;8.60;;;;;;;10.98;63.59;100514.30;105797;1256;98199;-78
2023/04/29 06:49:46;;;;;;;12.20;8.80;;;;;;;11.12;63.24;100516.00;105330;1256;96659;-83
2023/04/29 06:52:32;;;;;;;14.80;9.60;;;;;;;11.25;63.35;100513.85;106132;1258;96565;-80
2023/04/29 06:55:17;;;;;;;15.60;8.20;;;;;;;11.38;63.07;100514.11;106202;1256;100565;-81
2023/04/29 06:58:03;;;;;;;12.70;9.30;;;;;;;11.46;62.55;100515.55;105829;1262;99114;-81
2023/04/29 07:00:50;;;;;;;16.00;8.50;;;;;;;11.51;62.77;100515.10;106075;1257;97731;-87
2023/04/29 07:03:36;;;;;;;12.40;8.40;;;;;;;11.60;62.52;100517.73;106672;1256;96648;-87
2023/04/29 07:06:21;;;;;;;11.20;7.80;;;;;;;11.72;62.60;100515.09;106480;1265;97654;-88
2023/04/29 07:09:07;;;;;;;13.10;8.30;;;;;;;11.88;62.73;100509.61;106338;1260;99987;-86
2023/04/29 07:11:56;;;;;;;13.20;8.60;;;;;;;12.05;62.20;100512.02;106365;1256;99332;-86
2023/04/29 07:14:41;;;;;;;12.80;7.70;;;;;;;12.19;62.39;100513.55;105970;1256;97787;-85
2023/04/29 07:17:29;;;;;;;12.50;7.30;;;;;;;12.33;62.06;100510.50;106091;1257;96613;-85
2023/04/29 07:20:16;;;;;;;13.00;7.90;;;;;;;12.41;61.76;100509.59;106358;1256;97045;-88
2023/04/29 07:23:02;;;;;;;11.50;7.80;;;;;;;12.51;61.81;100506.58;105850;1256;101302;-82
2023/04/29 07:25:48;;;;;;;12.70;7.60;;;;;;;12.60;61.02;100507.13;105965;1260;100939;-82
2023/04/29 07:28:34;;;;;;;11.10;7.50;;;;;;;12.63;60.43;100508.96;106041;1256;97773;-80
2023/04/29 07:31:19;;;;;;;10.90;6.50;;;;;;;12.64;60.22;100507.86;105910;1259;97815;-81
2023/04/29 07:34:05;;;;;;;13.10;7.10;;;;;;;12.65;59.70;100506.29;106088;1259;97023;-82
2023/04/29 07:36:50;;;;;;;11.60;6.60;;;;;;;12.72;60.28;100505.15;105972;1258;99976;-81
2023/04/29 07:39:36;;;;;;;15.80;7.30;;;;;;;12.89;60.20;100503.36;106444;1257;100393;-85
2023/04/29 07:42:22;;;;;;;9.20;6.70;;;;;;;13.09;60.33;100502.60;105915;1256;97755;-86
2023/04/29 07:45:09;;;;;;;16.00;7.30;;;;;;;13.30;60.02;100500.19;106032;1263;96888;-80
2023/04/29 07:47:54;;;;;;;11.00;6.40;;;;;;;13.54;60.82;100494.54;105625;1260;97081;-80
2023/04/29 07:50:40;;;;;;;11.10;7.70;;;;;;;13.77;60.58;100495.50;105550;1257;99981;-81
2023/04/29 07:53:25;;;;;;;10.00;5.90;;;;;;;13.91;59.43;100491.00;105982;1256;99105;-81
2023/04/29 07:56:11;;;;;;;10.50;6.20;;;;;;;13.99;58.18;100489.08;106081;1262;98985;-79
2023/04/29 07:58:56;;;;;;;12.00;6.30;;;;;;;14.07;57.76;100489.23;106280;1260;96662;-78
2023/04/29 08:01:42;;;;;;;10.70;6.00;;;;;;;14.16;57.55;100486.99;105614;1257;97115;-78
2023/04/29 08:04:28;;;;;;;11.20;6.50;;;;;;;14.27;57.32;100488.88;105725;1257;99972;-77
2023/04/29 08:07:18;;;;;;;9.50;6.20;;;;;;;14.38;57.95;100489.41;105454;1256;100102;-78
2023/04/29 08:10:04;;;;;;;10.80;5.50;;;;;;;14.48;57.24;100486.80;105485;1256;97721;-77
2023/04/29 08:12:50;;;;;;;9.90;6.00;;;;;;;14.56;56.96;100484.23;105708;1260;96709;-78
2023/04/29 08:15:35;;;;;;;11.20;6.00;;;;;;;14.61;56.31;100483.30;105584;1260;97125;-77
2023/04/29 08:18:21;;;;;;;7.60;5.40;;;;;;;14.64;56.39;100486.23;105618;1257;101227;-78
2023/04/29 08:21:08;;;;;;;8.80;5.20;;;;;;;14.70;55.94;100482.76;105755;1261;99092;-80
2023/04/29 08:23:54;;;;;;;9.80;5.20;;;;;;;14.77;55.50;100484.33;106073;1256;97762;-78
2023/04/29 08:26:40;;;;;;;10.60;6.30;;;;;;;14.83;55.37;100479.77;105539;1261;97129;-79
2023/04/29 08:29:26;;;;;;;10.10;6.20;;;;;;;14.91;55.67;100476.52;105184;1262;97071;-77
2023/04/29 08:32:12;;;;;;;9.00;5.20;;;;;;;14.95;55.32;100475.47;105533;1259;99980;-78
2023/04/29 08:34:57;;;;;;;10.90;6.70;;;;;;;15.05;56.07;100475.98;105734;1262;100320;-77
2023/04/29 08:37:42;;;;;;;10.00;4.40;;;;;;;15.16;54.81;100477.92;105834;1257;97742;-78
2023/04/29 08:40:29;;;;;;;10.00;4.90;;;;;;;15.22;54.19;100476.80;105751;1261;96652;-77
2023/04/29 08:43:16;;;;;;;8.20;4.50;;;;;;;15.25;53.93;100479.64;105615;1261;97213;-77
2023/04/29 08:46:02;;;;;;;6.30;4.20;;;;;;;15.27;53.44;100480.32;105968;1260;101240;-78
2023/04/29 08:48:48;;;;;;;7.50;4.10;;;;;;;15.27;52.89;100476.00;105841;1261;100105;-77
2023/04/29 08:51:34;;;;;;;9.90;5.00;;;;;;;15.30;53.24;100470.30;105769;1260;98992;-77
2023/04/29 08:54:19;;;;;;;10.50;5.60;;;;;;;15.42;52.56;100469.72;105763;1261;96581;-80
2023/04/29 08:57:06;;;;;;;9.30;4.40;;;;;;;15.55;52.29;100460.05;105873;1257;97492;-78
2023/04/29 08:59:52;;;;;;;8.10;4.40;;;;;;;15.65;52.33;100463.86;106027;1260;100105;-78
2023/04/29 09:02:46;;;;;;;9.00;4.40;;;;;;;15.76;51.78;100463.95;105916;1256;99302;-78
2023/04/29 09:05:33;;;;;;;8.90;4.60;;;;;;;15.85;50.83;100457.84;105812;1257;97720;-82
2023/04/29 09:08:21;;;;;;;9.50;5.10;;;;;;;15.92;50.99;100454.38;105933;1257;96642;-85
2023/04/29 09:11:10;;;;;;;9.30;5.10;;;;;;;16.01;51.13;100455.74;105816;1265;96619;-85
2023/04/29 09:14:02;;;;;;;9.90;4.80;;;;;;;16.09;51.04;100453.56;105893;1258;100598;-80
2023/04/29 09:16:47;;;;;;;7.20;4.30;;;;;;;16.16;50.97;100453.06;105567;1256;100067;-80
2023/04/29 09:19:35;;;;;;;8.50;4.50;;;;;;;16.18;50.51;100452.41;105623;1262;98489;-81
2023/04/29 09:22:20;;;;;;;8.30;4.30;;;;;;;16.17;50.12;100453.18;105579;1262;96616;-78
2023/04/29 09:25:12;;;;;;;7.30;4.10;;;;;;;16.17;50.09;100456.34;105387;1262;97120;-77
2023/04/29 09:27:58;;;;;;;8.00;4.50;;;;;;;16.17;49.70;100457.34;105160;1257;100030;-76
2023/04/29 09:30:46;;;;;;;6.40;4.20;;;;;;;16.18;49.23;100453.59;105154;1261;99244;-76
2023/04/29 09:33:32;;;;;;;10.50;4.70;;;;;;;16.20;49.24;100458.10;105125;1262;97776;-76
2023/04/29 09:36:46;;;;;;;8.60;4.30;;;;;;;16.28;49.76;100454.63;105141;1261;96598;-77
2023/04/29 09:39:38;;;;;;;10.90;4.30;;;;;;;16.39;49.45;100451.11;105135;1257;97056;-77
2023/04/29 09:42:24;;;;;;;9.90;3.80;;;;;;;16.48;49.56;100448.64;105077;1262;100665;-77
2023/04/29 09:45:10;;;;;;;7.00;4.70;;;;;;;16.56;50.05;100444.10;105071;1257;99075;-77
2023/04/29 09:48:03;;;;;;;4.40;3.70;;;;;;;16.68;49.89;100448.42;105160;1256;98916;-77
2023/04/29 09:51:01;;;;;;;6.70;3.90;;;;;;;16.80;49.63;100444.73;105095;1262;97881;-78
2023/04/29 09:53:47;;;;;;;7.10;4.10;;;;;;;16.86;49.11;100442.32;105102;1257;97065;-78
2023/04/29 09:56:50;;;;;;;11.40;5.00;;;;;;;16.93;48.93;100439.35;105172;1260;101390;-77
2023/04/29 09:59:38;;;;;;;10.40;3.90;;;;;;;17.02;48.98;100437.80;105607;1263;99101;-77
2023/04/29 10:02:25;;;;;;;8.10;4.40;;;;;;;17.12;48.80;100434.13;105396;1262;97801;-81
2023/04/29 10:05:12;;;;;;;10.00;4.10;;;;;;;17.18;48.99;100425.09;106618;1262;96616;-80
2023/04/29 10:07:59;;;;;;;5.80;4.00;;;;;;;17.24;48.77;100424.52;106446;1256;95823;-84
2023/04/29 10:10:46;;;;;;;12.00;4.50;;;;;;;17.31;48.54;100424.00;106122;1262;100084;-82
2023/04/29 10:13:34;;;;;;;7.90;4.30;;;;;;;17.39;48.74;100415.58;105928;1257;99317;-79
2023/04/29 10:16:28;;;;;;;11.00;4.30;;;;;;;17.46;48.21;100413.36;105939;1261;97691;-80
2023/04/29 10:19:34;;;;;;;6.20;4.60;;;;;;;17.51;47.71;100414.35;105706;1263;96626;-78
2023/04/29 10:22:32;;;;;;;10.60;4.10;;;;;;;17.53;47.54;100407.98;105905;1262;97176;-78
2023/04/29 10:25:19;;;;;;;6.70;4.30;;;;;;;17.58;47.88;100403.90;105880;1262;99989;-79
2023/04/29 10:28:11;;;;;;;4.90;3.50;;;;;;;17.66;47.75;100406.43;105937;1261;99096;-79
2023/04/29 10:31:01;;;;;;;5.80;3.50;;;;;;;17.76;47.83;100410.34;105922;1256;97684;-79
2023/04/29 10:33:47;;;;;;;6.30;4.00;;;;;;;17.85;47.98;100402.66;105903;1257;97890;-79
2023/04/29 10:36:33;;;;;;;6.30;4.00;;;;;;;17.94;47.50;100402.27;105834;1256;97115;-78
2023/04/29 10:39:49;;;;;;;7.10;3.70;;;;;;;18.03;46.86;100402.23;105901;1261;99997;-80
2023/04/29 10:42:54;;;;;;;7.70;3.60;;;;;;;18.02;46.27;100406.81;105970;1262;100407;-78
2023/04/29 10:45:40;;;;;;;7.10;3.50;;;;;;;17.97;46.55;100406.93;105872;1256;97708;-78
2023/04/29 10:48:25;;;;;;;7.50;3.60;;;;;;;17.97;46.78;100404.77;105935;1257;97305;-78
2023/04/29 10:51:11;;;;;;;8.60;3.80;;;;;;;17.98;46.77;100405.38;105928;1257;97200;-78
2023/04/29 10:54:13;;;;;;;8.50;4.20;;;;;;;17.97;46.98;100403.95;105883;1262;100001;-79
2023/04/29 10:56:58;;;;;;;5.50;3.50;;;;;;;17.99;46.72;100400.25;105957;1261;99073;-78
2023/04/29 10:59:44;;;;;;;6.00;3.50;;;;;;;18.06;46.45;100399.90;105769;1257;99407;-77
2023/04/29 11:02:30;;;;;;;8.40;3.70;;;;;;;18.08;46.70;100399.17;105578;1262;97228;-77
2023/04/29 11:05:32;;;;;;;8.90;3.90;;;;;;;18.12;46.63;100400.64;105630;1257;97138;-79
2023/04/29 11:08:23;;;;;;;7.90;3.80;;;;;;;18.22;46.44;100397.63;105772;1257;100826;-79
2023/04/29 11:11:08;;;;;;;8.70;4.10;;;;;;;18.34;46.65;100389.40;105662;1261;99070;-78
2023/04/29 11:13:54;;;;;;;8.50;3.70;;;;;;;18.44;47.16;100385.03;106336;1257;97695;-78
2023/04/29 11:16:48;;;;;;;9.90;4.30;;;;;;;18.58;47.25;100388.97;106376;1262;96639;-79
2023/04/29 11:19:36;;;;;;;4.70;4.10;;;;;;;18.71;47.09;100386.09;106634;1261;97048;-79
2023/04/29 11:22:21;;;;;;;7.10;4.80;;;;;;;18.74;46.32;100384.64;106518;1259;99969;-80
2023/04/29 11:25:08;;;;;;;8.00;4.90;;;;;;;18.67;45.40;100385.21;106518;1262;99103;-78
2023/04/29 11:27:55;;;;;;;8.40;3.90;;;;;;;18.65;45.47;100381.98;105896;1256;97716;-76
2023/04/29 11:30:42;;;;;;;11.40;4.50;;;;;;;18.73;45.60;100380.55;105897;1260;97320;-78
2023/04/29 11:33:27;;;;;;;7.90;4.30;;;;;;;18.83;45.53;100376.65;105943;1261;96521;-78
2023/04/29 11:36:17;;;;;;;7.90;4.40;;;;;;;18.94;45.38;100376.61;107383;1257;99935;-79
2023/04/29 11:39:04;;;;;;;9.70;4.80;;;;;;;19.04;45.44;100373.03;107535;1257;97542;-79
2023/04/29 11:41:51;;;;;;;11.80;4.20;;;;;;;19.15;45.71;100374.89;106133;1257;98981;-79
2023/04/29 11:44:59;;;;;;;8.90;3.60;;;;;;;19.20;45.27;100369.27;106889;1259;96705;31
2023/04/29 11:47:46;;;;;;;10.30;5.40;;;;;;;19.27;45.11;100366.88;105774;1263;96507;-79
2023/04/29 11:50:32;;;;;;;8.00;3.50;;;;;;;19.33;44.81;100360.84;105674;1262;100873;-79
2023/04/29 11:53:24;;;;;;;6.00;3.30;;;;;;;19.37;44.76;100363.95;107188;1258;100424;-80
2023/04/29 11:56:09;;;;;;;;;;;;;;;19.39;44.80;100364.80;106691;1261;98728;-80
2023/04/29 11:58:56;;;;;;;6.10;3.30;;;;;;;19.39;44.94;100360.41;106594;1263;97464;-79
2023/04/29 12:01:42;;;;;;;6.70;4.10;;;;;;;19.47;45.76;100362.58;105663;1267;97601;-82
2023/04/29 12:04:27;;;;;;;7.60;3.20;;;;;;;19.60;45.34;100360.75;105671;1262;100018;-82
2023/04/29 12:07:16;;;;;;;5.10;3.40;;;;;;;19.71;44.64;100361.32;105797;1267;100216;-83
2023/04/29 12:10:02;;;;;;;7.50;3.10;;;;;;;19.80;44.72;100358.84;105711;1261;98925;-82
2023/04/29 12:12:48;;;;;;;5.90;3.60;;;;;;;19.89;44.49;100359.29;105528;1262;96611;-83
2023/04/29 12:15:34;;;;;;;8.20;3.80;;;;;;;19.91;44.44;100358.98;105728;1261;96985;-82
2023/04/29 12:18:22;;;;;;;7.90;3.10;;;;;;;19.97;44.30;100360.64;105864;1262;108637;-82
2023/04/29 12:21:07;;;;;;;6.20;3.00;;;;;;;20.03;44.61;100355.92;105649;1265;100492;-82
2023/04/29 12:23:53;;;;;;;3.90;3.10;;;;;;;20.05;44.10;100353.87;105659;1261;99011;-82
2023/04/29 12:26:39;;;;;;;5.10;3.50;;;;;;;19.99;44.14;100360.70;105553;1268;96603;-81
2023/04/29 12:29:25;;;;;;;4.00;3.10;;;;;;;20.00;43.99;100357.25;105652;1261;97058;-82
2023/04/29 12:32:32;;;;;;;6.90;4.00;;;;;;;20.08;43.94;100350.70;105536;1263;100436;-81
2023/04/29 12:35:17;;;;;;;6.40;3.90;;;;;;;20.10;43.90;100353.00;105706;1260;99331;-80
2023/04/29 12:38:02;;;;;;;9.00;4.30;;;;;;;20.00;43.63;100356.80;105982;1263;97763;-82
2023/04/29 12:40:49;;;;;;;8.90;4.30;;;;;;;19.92;43.69;100353.77;105681;1263;96589;-81
2023/04/29 12:43:36;;;;;;;6.20;3.30;;;;;;;19.88;43.35;100352.73;105507;1262;97213;-81
2023/04/29 12:46:22;;;;;;;7.80;3.50;;;;;;;19.77;42.98;100349.67;105777;1261;101267;-82